createdAt,value
2023-04-17T00:00:50.313Z,40.25
2023-04-17T00:03:38.775Z,41.50
2023-04-17T00:06:27.308Z,42.72
2023-04-17T00:09:14.843Z,40.88
2023-04-17T00:12:02.439Z,45.22
2023-04-17T00:14:49.948Z,45.15
2023-04-17T00:17:37.458Z,45.22
2023-04-17T00:20:24.935Z,44.60
2023-04-17T00:23:12.429Z,44.10
2023-04-17T00:25:59.822Z,44.97
2023-04-17T00:28:48.944Z,45.55
2023-04-17T00:31:36.389Z,43.00
2023-04-17T00:34:23.919Z,43.22
2023-04-17T00:37:11.936Z,41.72
2023-04-17T00:39:59.343Z,42.60
2023-04-17T00:42:52.858Z,42.03
2023-04-17T00:45:41.731Z,46.00
2023-04-17T00:48:29.298Z,43.38
2023-04-17T00:51:16.910Z,45.78
2023-04-17T00:54:05.081Z,45.60
2023-04-17T00:56:56.576Z,44.38
2023-04-17T00:59:45.216Z,44.42
2023-04-17T01:02:32.724Z,45.72
2023-04-17T01:05:20.462Z,44.40
2023-04-17T01:08:08.267Z,40.67
2023-04-17T01:10:55.793Z,43.70
2023-04-17T01:13:51.049Z,43.75
2023-04-17T01:16:40.207Z,45.28
2023-04-17T01:19:28.676Z,42.90
2023-04-17T01:22:16.823Z,41.45
2023-04-17T01:25:05.782Z,42.50
2023-04-17T01:27:53.445Z,41.63
2023-04-17T01:30:40.947Z,42.78
2023-04-17T01:33:28.438Z,44.03
2023-04-17T01:36:16.544Z,44.33
2023-04-17T01:39:04.232Z,41.92
2023-04-17T01:41:51.675Z,39.35
2023-04-17T01:44:39.158Z,41.35
2023-04-17T01:47:26.658Z,41.55
2023-04-17T01:50:14.302Z,43.15
2023-04-17T01:53:01.731Z,45.03
2023-04-17T01:55:49.096Z,41.10
2023-04-17T01:58:36.596Z,43.47
2023-04-17T02:01:24.362Z,45.00
2023-04-17T02:04:11.911Z,42.72
2023-04-17T02:06:59.449Z,47.10
2023-04-17T02:09:47.079Z,45.40
2023-04-17T02:12:34.474Z,45.53
2023-04-17T02:15:21.977Z,46.03
2023-04-17T02:18:09.820Z,47.90
2023-04-17T02:20:57.299Z,47.83
2023-04-17T02:23:44.699Z,45.28
2023-04-17T02:26:32.153Z,46.35
2023-04-17T02:29:19.599Z,47.38
2023-04-17T02:32:07.055Z,48.25
2023-04-17T02:34:54.543Z,47.45
2023-04-17T02:37:41.981Z,47.15
2023-04-17T02:40:29.503Z,47.95
2023-04-17T02:43:17.264Z,49.15
2023-04-17T02:46:04.818Z,48.22
2023-04-17T02:48:52.307Z,48.25
2023-04-17T02:51:39.768Z,47.58
2023-04-17T02:54:27.187Z,48.30
2023-04-17T02:57:14.652Z,47.42
2023-04-17T03:00:02.291Z,48.47
2023-04-17T03:02:50.151Z,51.15
2023-04-17T03:05:37.660Z,49.53
2023-04-17T03:08:25.109Z,48.17
2023-04-17T03:11:12.696Z,49.05
2023-04-17T03:14:00.256Z,51.65
2023-04-17T03:16:47.839Z,49.13
2023-04-17T03:19:35.736Z,48.03
2023-04-17T03:22:23.233Z,51.60
2023-04-17T03:25:11.192Z,51.70
2023-04-17T03:27:58.689Z,51.33
2023-04-17T03:30:46.284Z,51.65
2023-04-17T03:33:33.757Z,54.50
2023-04-17T03:36:21.281Z,51.17
2023-04-17T03:39:08.752Z,51.63
2023-04-17T03:41:56.346Z,50.45
2023-04-17T03:44:43.766Z,50.30
2023-04-17T03:47:31.285Z,52.00
2023-04-17T03:50:18.823Z,51.42
2023-04-17T03:53:06.309Z,52.45
2023-04-17T03:55:53.815Z,52.08
2023-04-17T03:58:41.234Z,52.88
2023-04-17T04:01:28.746Z,55.00
2023-04-17T04:04:17.078Z,52.05
2023-04-17T04:07:04.748Z,52.50
2023-04-17T04:09:52.191Z,51.80
2023-04-17T04:12:39.633Z,56.72
2023-04-17T04:15:27.362Z,52.35
2023-04-17T04:18:14.787Z,53.22
2023-04-17T04:21:02.270Z,52.60
2023-04-17T04:23:49.891Z,53.08
2023-04-17T04:26:40.872Z,52.72
2023-04-17T04:29:28.388Z,51.53
2023-04-17T04:32:16.682Z,54.72
2023-04-17T04:35:04.789Z,56.70
2023-04-17T04:37:54.735Z,56.10
2023-04-17T04:40:43.902Z,54.40
2023-04-17T04:43:33.478Z,55.83
2023-04-17T04:46:20.974Z,50.70
2023-04-17T04:49:08.601Z,54.90
2023-04-17T04:51:56.666Z,52.80
2023-04-17T04:54:44.638Z,51.60
2023-04-17T04:57:32.134Z,51.55
2023-04-17T05:00:20.081Z,49.80
2023-04-17T05:03:08.014Z,48.92
2023-04-17T05:05:55.887Z,50.83
2023-04-17T05:08:43.369Z,47.40
2023-04-17T05:11:31.144Z,46.00
2023-04-17T05:14:18.621Z,40.50
2023-04-17T05:17:06.311Z,42.83
2023-04-17T05:19:53.784Z,41.38
2023-04-17T05:22:41.436Z,41.58
2023-04-17T05:25:29.086Z,42.35
2023-04-17T05:28:17.239Z,44.90
2023-04-17T05:31:05.094Z,41.13
2023-04-17T05:33:52.598Z,41.33
2023-04-17T05:36:40.059Z,40.90
2023-04-17T05:39:27.563Z,38.90
2023-04-17T05:42:15.000Z,35.55
2023-04-17T05:45:02.493Z,34.67
2023-04-17T05:47:50.654Z,36.88
2023-04-17T05:50:42.594Z,35.13
2023-04-17T05:53:33.357Z,33.83
2023-04-17T05:57:35.154Z,33.60
2023-04-17T06:00:23.241Z,34.72
2023-04-17T06:03:11.360Z,35.65
2023-04-17T06:05:59.597Z,32.92
2023-04-17T06:08:47.510Z,33.58
2023-04-17T06:11:35.349Z,31.55
2023-04-17T06:14:22.902Z,26.65
2023-04-17T06:17:12.415Z,30.05
2023-04-17T06:20:00.215Z,29.42
2023-04-17T06:22:47.874Z,31.05
2023-04-17T06:25:35.410Z,32.70
2023-04-17T06:28:22.893Z,30.40
2023-04-17T06:31:10.532Z,28.73
2023-04-17T06:33:58.083Z,29.10
2023-04-17T06:36:45.571Z,29.77
2023-04-17T06:39:34.130Z,28.75
2023-04-17T06:42:21.670Z,29.63
2023-04-17T06:45:09.448Z,30.33
2023-04-17T06:47:57.042Z,35.03
2023-04-17T06:50:45.091Z,35.03
2023-04-17T06:53:32.649Z,36.58
2023-04-17T06:56:20.991Z,37.67
2023-04-17T06:59:08.989Z,36.10
2023-04-17T07:01:56.679Z,33.45
2023-04-17T07:04:44.301Z,35.78
2023-04-17T07:07:34.040Z,34.13
2023-04-17T07:10:21.583Z,36.65
2023-04-17T07:13:09.051Z,33.60
2023-04-17T07:15:57.512Z,34.30
2023-04-17T07:18:45.058Z,34.30
2023-04-17T07:21:32.877Z,32.30
2023-04-17T07:24:20.373Z,30.75
2023-04-17T07:27:07.930Z,32.80
2023-04-17T07:29:56.057Z,32.05
2023-04-17T07:32:43.550Z,30.38
2023-04-17T07:35:31.136Z,32.30
2023-04-17T07:38:18.591Z,30.88
2023-04-17T07:41:06.080Z,30.10
2023-04-17T07:43:53.607Z,31.15
2023-04-17T07:46:41.520Z,31.38
2023-04-17T07:49:29.012Z,30.00
2023-04-17T07:52:18.331Z,31.48
2023-04-17T07:55:07.235Z,30.48
2023-04-17T07:57:55.032Z,31.30
2023-04-17T08:00:43.397Z,27.55
2023-04-17T08:03:31.933Z,27.60
2023-04-17T08:06:19.598Z,29.60
2023-04-17T08:09:07.300Z,30.60
2023-04-17T08:11:57.878Z,28.85
2023-04-17T08:14:45.878Z,27.90
2023-04-17T08:17:33.575Z,26.30
2023-04-17T08:20:21.997Z,28.35
2023-04-17T08:23:09.570Z,26.58
2023-04-17T08:25:57.046Z,27.73
2023-04-17T08:28:44.523Z,26.15
2023-04-17T08:31:32.177Z,26.98
2023-04-17T08:34:19.682Z,26.67
2023-04-17T08:37:07.289Z,24.88
2023-04-17T08:39:54.835Z,24.10
2023-04-17T08:42:43.515Z,26.20
2023-04-17T08:45:32.815Z,24.27
2023-04-17T08:48:24.303Z,23.67
2023-04-17T08:51:11.907Z,23.55
2023-04-17T08:53:59.516Z,24.17
2023-04-17T08:56:47.482Z,25.30
2023-04-17T08:59:34.984Z,25.23
2023-04-17T09:02:23.687Z,25.00
2023-04-17T09:05:21.118Z,25.83
2023-04-17T09:08:09.728Z,25.33
2023-04-17T09:10:57.297Z,24.77
2023-04-17T09:13:44.968Z,23.75
2023-04-17T09:16:32.731Z,24.85
2023-04-17T09:19:20.410Z,25.90
2023-04-17T09:22:18.520Z,24.98
2023-04-17T09:25:19.508Z,23.55
2023-04-17T09:28:14.039Z,25.40
2023-04-17T09:31:05.906Z,22.58
2023-04-17T09:33:58.861Z,24.30
2023-04-17T09:36:46.641Z,23.48
2023-04-17T09:39:34.242Z,23.10
2023-04-17T09:42:21.686Z,22.33
2023-04-17T09:45:19.746Z,21.90
2023-04-17T09:48:12.492Z,19.38
2023-04-17T09:51:00.141Z,18.98
2023-04-17T09:53:49.148Z,18.15
2023-04-17T09:56:38.072Z,16.48
2023-04-17T09:59:26.697Z,14.32
2023-04-17T10:02:16.455Z,14.30
2023-04-17T10:05:08.590Z,15.13
2023-04-17T10:07:56.771Z,11.68
2023-04-17T10:10:46.492Z,12.35
2023-04-17T10:13:38.653Z,12.30
2023-04-17T10:16:37.184Z,11.35
2023-04-17T10:19:32.485Z,11.25
2023-04-17T10:22:19.951Z,11.15
2023-04-17T10:25:13.270Z,11.02
2023-04-17T10:28:02.179Z,11.23
2023-04-17T10:30:56.892Z,11.05
2023-04-17T10:33:51.649Z,10.00
2023-04-17T10:36:39.053Z,10.40
2023-04-17T10:39:26.508Z,12.02
2023-04-17T10:42:21.811Z,12.75
2023-04-17T10:45:19.313Z,12.43
2023-04-17T10:48:06.920Z,12.73
2023-04-17T10:50:58.124Z,12.63
2023-04-17T10:53:46.365Z,12.55
2023-04-17T10:56:39.522Z,11.05
2023-04-17T10:59:30.321Z,10.90
2023-04-17T11:02:33.127Z,8.93
2023-04-17T11:05:21.333Z,9.07
2023-04-17T11:08:10.043Z,7.82
2023-04-17T11:10:57.640Z,8.90
2023-04-17T11:13:48.882Z,8.52
2023-04-17T11:16:41.910Z,6.65
2023-04-17T11:19:29.744Z,7.25
2023-04-17T11:22:19.295Z,7.05
2023-04-17T11:25:07.220Z,7.25
2023-04-17T11:27:59.599Z,6.95
2023-04-17T11:30:47.254Z,6.70
2023-04-17T11:33:38.191Z,5.72
2023-04-17T11:36:26.226Z,5.80
2023-04-17T11:39:15.739Z,6.43
2023-04-17T11:42:03.751Z,6.40
2023-04-17T11:44:51.255Z,6.30
2023-04-17T11:47:38.783Z,6.35
2023-04-17T11:50:30.840Z,6.32
2023-04-17T11:53:18.292Z,6.97
2023-04-17T11:56:15.630Z,5.82
2023-04-17T11:59:04.978Z,4.53
2023-04-17T12:01:53.146Z,5.15
2023-04-17T12:04:41.225Z,5.05
2023-04-17T12:07:28.794Z,4.15
2023-04-17T12:10:16.220Z,5.00
2023-04-17T12:13:03.743Z,7.13
2023-04-17T12:15:51.293Z,6.10
2023-04-17T12:18:38.859Z,6.38
2023-04-17T12:21:26.293Z,6.80
2023-04-17T12:24:14.465Z,6.10
2023-04-17T12:27:02.411Z,5.75
2023-04-17T12:29:49.936Z,6.38
2023-04-17T12:32:39.480Z,5.85
2023-04-17T12:35:27.697Z,5.75
2023-04-17T12:38:15.175Z,5.97
2023-04-17T12:41:02.646Z,5.80
2023-04-17T12:43:50.130Z,5.30
2023-04-17T12:46:37.667Z,5.22
2023-04-17T12:49:25.375Z,5.38
2023-04-17T12:52:12.863Z,6.05
2023-04-17T12:55:01.077Z,5.55
2023-04-17T12:57:48.553Z,6.00
2023-04-17T13:00:36.233Z,5.57
2023-04-17T13:03:23.822Z,6.05
2023-04-17T13:06:11.608Z,5.20
2023-04-17T13:08:59.012Z,5.80
2023-04-17T13:11:46.544Z,5.55
2023-04-17T13:14:34.173Z,5.80
2023-04-17T13:17:22.153Z,6.85
2023-04-17T13:20:10.350Z,6.53
2023-04-17T13:22:58.986Z,5.88
2023-04-17T13:25:47.341Z,5.65
2023-04-17T13:28:34.775Z,6.13
2023-04-17T13:31:24.511Z,5.78
2023-04-17T13:34:12.116Z,6.50
2023-04-17T13:36:59.655Z,5.40
2023-04-17T13:39:47.216Z,5.88
2023-04-17T13:42:34.788Z,5.50
2023-04-17T13:45:22.360Z,5.53
2023-04-17T13:48:11.596Z,6.00
2023-04-17T13:50:59.072Z,5.82
2023-04-17T13:53:46.642Z,5.70
2023-04-17T13:56:34.097Z,5.35
2023-04-17T13:59:21.545Z,5.10
2023-04-17T14:02:09.266Z,5.97
2023-04-17T14:04:56.983Z,5.93
2023-04-17T14:07:44.688Z,5.65
2023-04-17T14:10:32.152Z,5.57
2023-04-17T14:13:19.640Z,5.13
2023-04-17T14:16:07.402Z,6.32
2023-04-17T14:18:55.154Z,5.47
2023-04-17T14:21:44.315Z,5.78
2023-04-17T14:24:31.927Z,5.32
2023-04-17T14:27:19.385Z,5.78
2023-04-17T14:30:08.377Z,5.60
2023-04-17T14:32:55.988Z,6.03
2023-04-17T14:35:43.649Z,5.68
2023-04-17T14:38:31.170Z,6.05
2023-04-17T14:41:18.698Z,5.85
2023-04-17T14:44:06.531Z,5.97
2023-04-17T14:46:54.118Z,5.43
2023-04-17T14:49:41.599Z,5.80
2023-04-17T14:52:28.992Z,5.97
2023-04-17T14:55:16.608Z,5.90
2023-04-17T14:58:04.068Z,5.57
2023-04-17T15:00:51.568Z,5.53
2023-04-17T15:03:39.469Z,6.13
2023-04-17T15:06:27.190Z,5.65
2023-04-17T15:09:15.082Z,5.60
2023-04-17T15:12:02.937Z,5.63
2023-04-17T15:14:50.463Z,5.68
2023-04-17T15:17:38.062Z,5.70
2023-04-17T15:20:25.729Z,5.80
2023-04-17T15:23:13.280Z,5.90
2023-04-17T15:26:01.355Z,6.53
2023-04-17T15:28:49.003Z,5.80
2023-04-17T15:31:37.427Z,5.93
2023-04-17T15:34:25.137Z,6.40
2023-04-17T15:37:12.594Z,5.82
2023-04-17T15:40:00.245Z,5.20
2023-04-17T15:42:47.782Z,5.97
2023-04-17T15:45:35.612Z,5.93
2023-04-17T15:48:23.230Z,6.05
2023-04-17T15:51:10.678Z,5.78
2023-04-17T15:53:58.138Z,6.68
2023-04-17T15:56:45.627Z,5.35
2023-04-17T15:59:33.223Z,5.90
2023-04-17T16:02:20.975Z,6.03
2023-04-17T16:05:08.823Z,5.90
2023-04-17T16:07:56.247Z,5.85
2023-04-17T16:10:43.708Z,5.60
2023-04-17T16:13:31.170Z,5.63
2023-04-17T16:16:18.703Z,6.20
2023-04-17T16:19:07.304Z,5.53
2023-04-17T16:21:56.702Z,5.68
2023-04-17T16:24:44.156Z,5.75
2023-04-17T16:27:33.118Z,6.20
2023-04-17T16:30:21.441Z,5.82
2023-04-17T16:33:09.219Z,5.65
2023-04-17T16:35:57.362Z,6.40
2023-04-17T16:38:46.057Z,5.93
2023-04-17T16:41:33.580Z,5.55
2023-04-17T16:44:21.456Z,6.47
2023-04-17T16:47:13.765Z,6.55
2023-04-17T16:50:01.980Z,6.53
2023-04-17T16:52:50.383Z,6.57
2023-04-17T16:55:37.837Z,7.15
2023-04-17T16:58:25.714Z,6.47
2023-04-17T17:01:13.588Z,5.90
2023-04-17T17:04:01.218Z,6.65
2023-04-17T17:06:48.781Z,6.15
2023-04-17T17:09:36.297Z,6.55
2023-04-17T17:12:24.170Z,6.28
2023-04-17T17:15:11.874Z,7.78
2023-04-17T17:17:59.369Z,6.18
2023-04-17T17:20:48.985Z,6.63
2023-04-17T17:23:37.918Z,6.95
2023-04-17T17:26:25.825Z,6.88
2023-04-17T17:29:13.563Z,7.05
2023-04-17T17:32:01.238Z,7.15
2023-04-17T17:34:48.794Z,8.20
2023-04-17T17:37:36.372Z,8.15
2023-04-17T17:40:23.867Z,8.57
2023-04-17T17:43:12.293Z,8.30
2023-04-17T17:45:59.814Z,8.23
2023-04-17T17:48:47.695Z,8.85
2023-04-17T17:51:35.251Z,8.55
2023-04-17T17:54:22.774Z,8.98
2023-04-17T17:57:10.510Z,8.18
2023-04-17T17:59:58.256Z,8.23
2023-04-17T18:02:46.140Z,9.32
2023-04-17T18:05:33.722Z,8.48
2023-04-17T18:08:21.260Z,8.93
2023-04-17T18:11:08.973Z,9.07
2023-04-17T18:13:57.261Z,9.43
2023-04-17T18:16:44.686Z,10.20
2023-04-17T18:19:32.764Z,8.85
2023-04-17T18:22:21.458Z,9.05
2023-04-17T18:25:09.488Z,8.57
2023-04-17T18:27:57.102Z,9.25
2023-04-17T18:30:44.538Z,10.40
2023-04-17T18:33:32.069Z,10.00
2023-04-17T18:36:19.556Z,10.60
2023-04-17T18:39:06.986Z,10.77
2023-04-17T18:41:54.486Z,9.88
2023-04-17T18:44:41.963Z,10.32
2023-04-17T18:47:29.994Z,10.38
2023-04-17T18:50:17.518Z,10.40
2023-04-17T18:53:04.999Z,10.82
2023-04-17T18:55:52.717Z,10.20
2023-04-17T18:58:40.515Z,10.60
2023-04-17T19:01:28.041Z,10.75
2023-04-17T19:04:19.336Z,9.88
2023-04-17T19:07:06.835Z,11.13
2023-04-17T19:09:54.278Z,10.68
2023-04-17T19:12:43.128Z,10.68
2023-04-17T19:15:30.647Z,10.52
2023-04-17T19:18:18.117Z,10.07
2023-04-17T19:21:05.601Z,11.30
2023-04-17T19:23:53.134Z,10.40
2023-04-17T19:26:41.230Z,11.35
2023-04-17T19:29:28.748Z,10.85
2023-04-17T19:32:16.906Z,10.93
2023-04-17T19:35:04.821Z,10.20
2023-04-17T19:37:52.287Z,10.70
2023-04-17T19:40:39.819Z,10.10
2023-04-17T19:43:27.306Z,10.77
2023-04-17T19:46:15.629Z,10.70
2023-04-17T19:49:03.374Z,9.98
2023-04-17T19:51:50.871Z,10.68
2023-04-17T19:54:38.988Z,10.70
2023-04-17T19:57:26.743Z,10.43
2023-04-17T20:00:14.719Z,10.02
2023-04-17T20:03:02.342Z,10.60
2023-04-17T20:05:50.066Z,10.88
2023-04-17T20:08:37.507Z,12.05
2023-04-17T20:11:25.266Z,12.60
2023-04-17T20:14:14.742Z,12.63
2023-04-17T20:17:02.320Z,12.45
2023-04-17T20:19:49.893Z,12.55
2023-04-17T20:22:39.524Z,12.40
2023-04-17T20:25:27.122Z,12.30
2023-04-17T20:28:14.626Z,13.55
2023-04-17T20:31:03.570Z,12.32
2023-04-17T20:33:51.078Z,13.20
2023-04-17T20:36:38.603Z,13.45
2023-04-17T20:39:26.268Z,11.70
2023-04-17T20:42:13.641Z,12.43
2023-04-17T20:45:01.096Z,11.38
2023-04-17T20:50:39.887Z,12.63
2023-04-17T20:53:27.385Z,12.88
2023-04-17T20:56:14.926Z,12.30
2023-04-17T20:59:02.345Z,11.55
2023-04-17T21:01:51.703Z,11.10
2023-04-17T21:04:39.412Z,12.43
2023-04-17T21:07:26.862Z,13.10
2023-04-17T21:10:14.347Z,11.52
2023-04-17T21:13:02.160Z,12.23
2023-04-17T21:15:49.715Z,13.07
2023-04-17T21:18:37.558Z,12.48
2023-04-17T21:21:25.014Z,11.82
2023-04-17T21:24:12.709Z,11.88
2023-04-17T21:27:01.279Z,12.02
2023-04-17T21:29:49.121Z,12.43
2023-04-17T21:32:37.114Z,12.75
2023-04-17T21:35:24.623Z,12.73
2023-04-17T21:38:12.612Z,12.40
2023-04-17T21:41:00.173Z,12.38
2023-04-17T21:43:47.730Z,12.60
2023-04-17T21:46:35.147Z,12.32
2023-04-17T21:49:23.673Z,12.63
2023-04-17T21:52:11.218Z,12.45
2023-04-17T21:55:03.272Z,12.35
2023-04-17T21:57:50.972Z,12.15
2023-04-17T22:00:38.468Z,12.32
2023-04-17T22:03:26.081Z,13.05
2023-04-17T22:06:14.183Z,12.23
2023-04-17T22:09:01.825Z,11.48
2023-04-17T22:11:49.838Z,11.80
2023-04-17T22:14:37.353Z,12.25
2023-04-17T22:17:24.979Z,12.10
2023-04-17T22:20:12.858Z,11.15
2023-04-17T22:23:00.245Z,11.80
2023-04-17T22:25:47.761Z,12.52
2023-04-17T22:28:35.219Z,12.48
2023-04-17T22:31:22.699Z,11.48
2023-04-17T22:34:10.330Z,11.45
2023-04-17T22:36:58.113Z,12.60
2023-04-17T22:39:45.680Z,12.60
2023-04-17T22:42:33.105Z,11.73
2023-04-17T22:45:20.690Z,12.07
2023-04-17T22:48:08.190Z,12.60
2023-04-17T22:50:56.427Z,12.18
2023-04-17T22:53:44.011Z,12.68
2023-04-17T22:56:31.479Z,12.98
2023-04-17T22:59:18.902Z,13.93
2023-04-17T23:02:06.350Z,12.32
2023-04-17T23:04:53.836Z,12.50
2023-04-17T23:07:41.297Z,14.23
2023-04-17T23:10:28.792Z,12.57
2023-04-17T23:13:16.414Z,13.13
2023-04-17T23:16:04.351Z,12.77
2023-04-17T23:18:51.971Z,13.77
2023-04-17T23:21:39.423Z,12.52
2023-04-17T23:24:26.846Z,13.07
2023-04-17T23:27:14.287Z,12.38
2023-04-17T23:30:02.200Z,14.40
2023-04-17T23:32:51.962Z,12.55
2023-04-17T23:35:39.453Z,12.57
2023-04-17T23:38:27.100Z,12.68
2023-04-17T23:41:14.584Z,12.82
2023-04-17T23:44:03.714Z,13.00
2023-04-17T23:46:51.430Z,12.50
2023-04-17T23:49:38.967Z,12.95
2023-04-17T23:52:27.863Z,13.80
2023-04-17T23:55:15.566Z,12.63
2023-04-17T23:58:03.252Z,13.20
